メインページ
METAR-TAF:

METAR-TAF

空港 :

バンコク, タイ

ドンムアン空港

緯度: 13-54-45N, 経度: 100-36-24E, 海抜: 4m

現時点の気象観測

当レポートは35分前の12:00(UTC)に作成
南/南西の風 6kt
気温 31°C
湿度 71%
気圧 1007 hPa
視程10km以上
高度2000ftの雲はほとんどない

METAR: VTBD 201200Z 21006KT 9999 FEW020 31/25 Q1007 NOSIG

時間: 19:35 (12:35 UTC)

予報

当レポートは1時間35分前の11:00(UTC)に作成
予報は20日の 12時(UTC)から 21日の 18時(UTC)まで有効
の風 8kt
視程10km以上
高度2000ftの雲はほとんどない
20日の 18時(UTC)から 20日の 20時(UTC)まで徐々に
南東の風 5kt
21日の 02時(UTC)から 21日の 04時(UTC)まで徐々に
の風 8kt

TAF: VTBD 201100Z 2012/2118 19008KT 9999 FEW020 BECMG 2018/2020 13005KT BECMG 2102/2104 19008KT

4,000以上の空港の気象観測と天気予報(METAR報とTAF報)

利用可能な観測所は地図上に黄色い丸と赤い丸で示す。

丸の上にカーソルを重ねると観測所名を参照できる。

次にクリックすると気象観測と天気予報を参照できる。

マップの切り替え:黒色「×」印の緑ボタンをクリックして拡大、「-」印の緑ボタンをクリックして縮小、緑色の三角印をクリックして隣りの地図に切り替え


METAR-TAF: